Time;durP1;ratioP1;P1;durP2;ratioP2;P2;SDS_P1;SDS_P2;PMS_P1;PMS_P2;Temp;Humidity;BMP_temperature;BMP_pressure;BME280_temperature;BME280_humidity;BME280_pressure;Samples;Min_cycle;Max_cycle;Signal;HPM_P1;HPM_P2
2023/03/12 00:02:15;;;;;;;12.83;7.60;;;-1.20;99.90;;;;;;6219104;28;20038;-79
2023/03/12 00:05:16;;;;;;;15.07;5.93;;;-1.20;99.90;;;;;;6218093;28;20050;-80
2023/03/12 00:08:18;;;;;;;11.93;7.20;;;-1.20;99.90;;;;;;6213044;28;20057;-80
2023/03/12 00:11:21;;;;;;;7.53;6.63;;;-1.20;99.90;;;;;;6213960;28;20077;-79
2023/03/12 00:14:23;;;;;;;11.70;5.67;;;-1.20;99.90;;;;;;6211084;28;20078;-78
2023/03/12 00:17:25;;;;;;;15.40;5.77;;;-1.30;99.90;;;;;;6228198;28;20050;-78
2023/03/12 00:20:26;;;;;;;7.53;4.73;;;-1.30;99.90;;;;;;6217434;28;20050;-80
2023/03/12 00:23:28;;;;;;;9.30;5.40;;;-1.30;99.90;;;;;;6215499;28;20048;-80
2023/03/12 00:26:31;;;;;;;6.87;4.93;;;-1.30;99.90;;;;;;6214418;28;20050;-78
2023/03/12 00:29:33;;;;;;;13.20;5.37;;;-1.30;99.90;;;;;;6212198;28;20056;-80
2023/03/12 00:32:36;;;;;;;10.47;5.43;;;-1.30;99.90;;;;;;6214599;28;20053;-80
2023/03/12 00:35:38;;;;;;;9.20;5.33;;;-1.40;99.90;;;;;;6212207;28;20046;-79
2023/03/12 00:38:39;;;;;;;7.47;5.53;;;-1.40;99.90;;;;;;6210819;28;20054;-79
2023/03/12 00:41:42;;;;;;;12.83;5.83;;;-1.40;99.90;;;;;;6212500;28;20046;-79
2023/03/12 00:44:44;;;;;;;7.97;4.30;;;-1.40;99.90;;;;;;6209618;28;20061;-80
2023/03/12 00:47:46;;;;;;;12.30;5.40;;;-1.40;99.90;;;;;;6209695;28;20043;-79
2023/03/12 00:50:48;;;;;;;6.10;5.50;;;-1.40;99.90;;;;;;6209662;28;20062;-79
2023/03/12 00:53:50;;;;;;;8.37;5.27;;;-1.30;99.90;;;;;;6210064;28;20051;-80
2023/03/12 00:56:53;;;;;;;5.77;4.73;;;-1.30;99.90;;;;;;6209018;28;20536;-79
2023/03/12 00:59:54;;;;;;;8.87;6.33;;;-1.20;99.90;;;;;;6208976;28;20050;-80
2023/03/12 01:02:56;;;;;;;7.23;5.83;;;-1.20;99.90;;;;;;6207921;28;20058;-79
2023/03/12 01:05:58;;;;;;;6.53;5.13;;;-1.10;99.90;;;;;;6208640;28;20054;-79
2023/03/12 01:09:01;;;;;;;12.67;6.83;;;-1.00;99.90;;;;;;6207960;28;20046;-78
2023/03/12 01:12:05;;;;;;;11.37;5.83;;;-0.90;99.90;;;;;;6208177;28;20050;-80
2023/03/12 01:15:08;;;;;;;8.80;5.17;;;-0.90;99.90;;;;;;6207425;28;20042;-80
2023/03/12 01:18:09;;;;;;;12.53;5.77;;;-0.90;99.90;;;;;;6207737;28;20056;-79
2023/03/12 01:21:11;;;;;;;4.60;3.87;;;-1.00;99.90;;;;;;6205610;28;20061;-80
2023/03/12 01:24:13;;;;;;;6.70;4.43;;;-1.00;99.90;;;;;;6206660;28;20069;-79
2023/03/12 01:27:16;;;;;;;11.90;5.80;;;-1.00;99.90;;;;;;6206417;28;20046;-79
2023/03/12 01:30:18;;;;;;;12.10;3.87;;;-1.00;99.90;;;;;;6206206;28;20057;-79
2023/03/12 01:33:21;;;;;;;7.80;4.37;;;-1.00;99.90;;;;;;6206603;28;20050;-80
2023/03/12 01:36:25;;;;;;;10.43;4.23;;;-1.10;99.90;;;;;;6207922;28;20052;-80
2023/03/12 01:39:26;;;;;;;6.90;5.30;;;-1.10;99.90;;;;;;6207703;28;20071;-80
2023/03/12 01:42:29;;;;;;;9.67;5.43;;;-1.00;99.90;;;;;;6208099;28;20061;-79
2023/03/12 01:46:01;;;;;;;6.40;4.70;;;-1.00;99.90;;;;;;6206465;28;20053;-80
2023/03/12 01:49:07;;;;;;;8.23;5.83;;;-1.00;99.90;;;;;;6186089;28;20092;-79
2023/03/12 01:52:13;;;;;;;12.60;5.10;;;-0.90;99.90;;;;;;6207580;28;20485;-80
2023/03/12 01:55:17;;;;;;;7.67;4.70;;;-0.90;99.90;;;;;;6208137;28;20052;-80
2023/03/12 01:58:21;;;;;;;7.33;4.93;;;-0.80;99.90;;;;;;6207601;28;20054;-81
2023/03/12 02:01:23;;;;;;;8.63;5.17;;;-0.80;99.90;;;;;;6207001;28;20054;-80
2023/03/12 02:04:28;;;;;;;7.23;4.50;;;-0.80;99.90;;;;;;6207057;28;20416;-80
2023/03/12 02:07:30;;;;;;;9.83;5.13;;;-0.70;99.90;;;;;;6206952;28;20054;-79
2023/03/12 02:10:31;;;;;;;12.40;5.77;;;-0.70;99.90;;;;;;6207389;28;20073;-80
2023/03/12 02:13:35;;;;;;;8.23;4.73;;;-0.70;99.90;;;;;;6206552;28;20042;-79
2023/03/12 02:16:37;;;;;;;10.27;5.47;;;-0.70;99.90;;;;;;6205519;28;20046;-79
2023/03/12 02:19:47;;;;;;;10.37;6.83;;;-0.70;99.90;;;;;;6204850;28;20114;-79
2023/03/12 02:23:00;;;;;;;6.27;4.40;;;-0.70;99.90;;;;;;6206238;28;20057;-79
2023/03/12 02:26:05;;;;;;;10.03;5.13;;;-0.60;99.90;;;;;;6206573;28;20303;-79
2023/03/12 02:29:08;;;;;;;8.40;5.10;;;-0.50;99.90;;;;;;6205947;28;20043;-80
2023/03/12 02:32:17;;;;;;;9.83;4.73;;;-0.50;99.90;;;;;;6206144;28;20046;-80
2023/03/12 02:35:18;;;;;;;8.93;4.90;;;-0.40;99.90;;;;;;6206212;28;20056;-79
2023/03/12 02:38:41;;;;;;;7.13;4.07;;;-0.30;99.90;;;;;;6207135;28;20061;-80
2023/03/12 02:41:46;;;;;;;7.43;4.80;;;-0.30;99.90;;;;;;6206713;28;20046;-80
2023/03/12 02:44:48;;;;;;;8.87;4.87;;;-0.20;99.90;;;;;;6206431;28;20066;-79
2023/03/12 02:47:49;;;;;;;6.70;4.37;;;-0.20;99.90;;;;;;6205824;28;20043;-79
2023/03/12 02:50:51;;;;;;;9.77;5.73;;;-0.10;99.90;;;;;;6205528;28;20054;-79
2023/03/12 02:53:53;;;;;;;7.37;6.23;;;-0.10;99.90;;;;;;6206789;28;20510;-79
2023/03/12 02:56:57;;;;;;;11.20;5.97;;;0.00;99.90;;;;;;6205106;28;20046;-79
2023/03/12 02:59:59;;;;;;;5.60;4.73;;;0.00;99.90;;;;;;6206613;28;20046;-79
2023/03/12 03:03:00;;;;;;;9.53;4.23;;;0.00;99.90;;;;;;6212244;28;20046;-78
2023/03/12 03:06:02;;;;;;;11.97;4.70;;;0.10;99.90;;;;;;6211550;28;20417;-78
2023/03/12 03:09:04;;;;;;;7.20;4.57;;;0.20;99.90;;;;;;6203700;28;20389;-80
2023/03/12 03:12:08;;;;;;;8.97;5.33;;;0.20;99.90;;;;;;6203280;28;20527;-78
2023/03/12 03:15:11;;;;;;;10.20;4.30;;;0.30;99.90;;;;;;6202544;28;20497;-78
2023/03/12 03:18:13;;;;;;;8.43;5.03;;;0.40;99.90;;;;;;6202803;28;20046;-78
2023/03/12 03:21:16;;;;;;;6.57;4.57;;;0.50;99.90;;;;;;6202840;28;20057;-78
2023/03/12 03:24:18;;;;;;;7.43;4.50;;;0.50;99.90;;;;;;6202776;28;20049;-78
2023/03/12 03:27:21;;;;;;;5.73;4.03;;;0.60;99.90;;;;;;6202337;28;20053;-78
2023/03/12 03:30:23;;;;;;;6.20;4.40;;;0.60;99.90;;;;;;6178592;28;20054;-78
2023/03/12 03:33:25;;;;;;;7.97;4.43;;;0.60;99.90;;;;;;6178253;28;20061;-78
2023/03/12 03:36:26;;;;;;;6.33;3.97;;;0.70;99.90;;;;;;6178034;28;20054;-78
2023/03/12 03:39:28;;;;;;;5.17;4.43;;;0.70;99.90;;;;;;6182774;28;20049;-78
2023/03/12 03:42:31;;;;;;;9.90;5.57;;;0.80;99.90;;;;;;6195103;28;20055;-78
2023/03/12 03:45:33;;;;;;;6.80;5.07;;;0.80;99.90;;;;;;6190413;28;20051;-79
2023/03/12 03:48:35;;;;;;;6.77;3.60;;;0.80;99.90;;;;;;6187258;28;20054;-79
2023/03/12 03:51:37;;;;;;;10.67;3.70;;;0.90;99.90;;;;;;6184533;28;20039;-79
2023/03/12 03:54:38;;;;;;;4.33;3.77;;;0.90;99.90;;;;;;6182972;28;20058;-78
2023/03/12 03:57:42;;;;;;;5.13;4.10;;;0.90;99.90;;;;;;6178766;28;20066;-78
2023/03/12 04:00:45;;;;;;;9.15;4.85;;;0.90;99.90;;;;;;6178501;28;20055;-79
2023/03/12 04:03:47;;;;;;;4.13;3.40;;;0.90;99.90;;;;;;6177376;28;20047;-78
2023/03/12 04:06:48;;;;;;;4.67;3.57;;;0.90;99.90;;;;;;6178923;28;20055;-78
2023/03/12 04:09:50;;;;;;;6.90;4.77;;;1.00;99.90;;;;;;6182461;28;20055;-79
2023/03/12 04:12:53;;;;;;;4.43;3.53;;;1.00;99.90;;;;;;6181368;28;20058;-78
2023/03/12 04:15:55;;;;;;;5.15;3.25;;;1.10;99.90;;;;;;6182482;28;20058;-79
2023/03/12 04:18:56;;;;;;;7.73;4.20;;;1.20;99.90;;;;;;6223516;23;20050;-77
2023/03/12 04:21:58;;;;;;;9.37;3.90;;;1.20;99.90;;;;;;6201879;28;20057;-78
2023/03/12 04:25:00;;;;;;;6.57;3.58;;;1.30;99.90;;;;;;6202576;28;20038;-78
2023/03/12 04:28:03;;;;;;;7.55;3.95;;;1.30;99.90;;;;;;6201990;28;20050;-78
2023/03/12 04:31:07;;;;;;;6.93;4.20;;;1.40;99.90;;;;;;6205764;28;20042;-77
2023/03/12 04:34:09;;;;;;;4.68;3.22;;;1.40;99.90;;;;;;6225704;28;20056;-77
2023/03/12 04:37:12;;;;;;;11.50;5.03;;;1.50;99.90;;;;;;6229369;28;20050;-77
2023/03/12 04:40:14;;;;;;;5.90;4.00;;;1.50;99.90;;;;;;6227226;28;20045;-77
2023/03/12 04:43:19;;;;;;;6.63;5.90;;;1.60;99.90;;;;;;6227565;28;20049;-77
2023/03/12 04:46:21;;;;;;;5.07;3.78;;;1.60;99.90;;;;;;6227356;28;20054;-77
2023/03/12 04:49:23;;;;;;;11.88;5.05;;;1.70;99.90;;;;;;6227245;28;20050;-77
2023/03/12 04:52:25;;;;;;;7.68;5.30;;;1.70;99.90;;;;;;6224137;28;20050;-77
2023/03/12 04:55:27;;;;;;;9.73;4.28;;;1.80;99.90;;;;;;6224499;28;20049;-77
2023/03/12 04:58:30;;;;;;;7.43;4.65;;;1.80;99.90;;;;;;6224742;28;20185;-77
2023/03/12 05:01:33;;;;;;;5.00;4.00;;;1.90;99.90;;;;;;6223199;28;20554;-78
2023/03/12 05:04:35;;;;;;;7.07;4.60;;;1.90;99.90;;;;;;6224266;28;20049;-78
2023/03/12 05:07:37;;;;;;;4.43;4.03;;;1.90;99.90;;;;;;6223640;28;20045;-78
2023/03/12 05:10:39;;;;;;;6.22;4.53;;;1.90;99.90;;;;;;6225345;28;20050;-77
2023/03/12 05:13:42;;;;;;;13.20;4.57;;;1.80;99.90;;;;;;6224589;28;20053;-77
2023/03/12 05:16:44;;;;;;;10.25;5.60;;;1.80;99.90;;;;;;6224826;28;20057;-78
2023/03/12 05:19:45;;;;;;;12.13;4.47;;;1.80;99.90;;;;;;6226563;28;20046;-79
2023/03/12 05:22:47;;;;;;;4.43;3.85;;;1.70;99.90;;;;;;6226200;28;20334;-79
2023/03/12 05:25:49;;;;;;;5.80;4.13;;;1.70;99.90;;;;;;6200909;28;20532;-78
2023/03/12 05:28:52;;;;;;;4.75;4.20;;;1.80;99.90;;;;;;6189759;28;20055;-78
2023/03/12 05:31:54;;;;;;;6.22;4.55;;;1.80;99.90;;;;;;6189618;28;20050;-78
2023/03/12 05:34:56;;;;;;;5.50;4.43;;;1.80;99.90;;;;;;6188020;28;20047;-79
2023/03/12 05:37:57;;;;;;;7.63;4.65;;;1.80;99.90;;;;;;6185433;28;20057;-79
2023/03/12 05:41:00;;;;;;;8.45;5.63;;;1.90;99.90;;;;;;6186091;28;20074;-80
2023/03/12 05:44:03;;;;;;;12.88;5.38;;;1.90;99.90;;;;;;6185741;28;20047;-79
2023/03/12 05:47:05;;;;;;;7.95;5.22;;;1.90;99.90;;;;;;6177727;28;20046;-78
2023/03/12 05:50:10;;;;;;;8.65;5.13;;;1.90;99.90;;;;;;6178531;28;20047;-79
2023/03/12 05:53:12;;;;;;;6.65;4.50;;;1.90;99.90;;;;;;6177682;28;20061;-79
2023/03/12 05:56:15;;;;;;;5.43;4.32;;;1.90;99.90;;;;;;6177582;28;20156;-80
2023/03/12 05:59:18;;;;;;;6.65;5.47;;;1.90;99.90;;;;;;6178986;28;20068;-79
2023/03/12 06:02:20;;;;;;;6.63;4.93;;;1.90;99.90;;;;;;6179079;28;20061;-79
2023/03/12 06:05:22;;;;;;;11.50;5.72;;;2.00;99.90;;;;;;6178300;28;20039;-79
2023/03/12 06:08:24;;;;;;;11.98;5.57;;;2.00;99.90;;;;;;6180794;28;20051;-79
2023/03/12 06:11:26;;;;;;;6.28;4.78;;;2.00;99.90;;;;;;6189434;28;20047;-79
2023/03/12 06:14:29;;;;;;;10.40;4.97;;;2.00;99.90;;;;;;6188707;28;20642;-79
2023/03/12 06:17:31;;;;;;;5.93;5.07;;;2.10;99.90;;;;;;6183633;28;20054;-80
2023/03/12 06:20:33;;;;;;;11.10;5.25;;;2.10;99.90;;;;;;6195016;28;20411;-79
2023/03/12 06:23:34;;;;;;;14.18;6.68;;;2.20;99.90;;;;;;6229809;28;20029;-80
2023/03/12 06:26:36;;;;;;;8.07;5.60;;;2.20;99.90;;;;;;6240884;28;20050;-79
2023/03/12 06:29:39;;;;;;;8.65;5.57;;;2.30;99.90;;;;;;6238829;28;20726;-79
2023/03/12 06:32:41;;;;;;;10.23;5.20;;;2.40;99.90;;;;;;6236913;28;20526;-79
2023/03/12 06:35:44;;;;;;;9.23;5.60;;;2.40;99.90;;;;;;6238447;28;20046;-79
2023/03/12 06:38:46;;;;;;;7.57;5.47;;;2.50;99.90;;;;;;6242670;28;20045;-79
2023/03/12 06:41:47;;;;;;;9.95;6.95;;;2.60;99.90;;;;;;6240649;28;20045;-79
2023/03/12 06:44:51;;;;;;;10.80;5.68;;;2.70;99.90;;;;;;6242005;28;20042;-79
2023/03/12 06:47:52;;;;;;;10.35;6.93;;;2.80;99.90;;;;;;6235332;28;20508;-78
2023/03/12 06:50:54;;;;;;;6.70;5.90;;;2.80;99.90;;;;;;6237267;28;20053;-78
2023/03/12 06:53:56;;;;;;;12.05;7.25;;;2.90;99.90;;;;;;6238558;28;20057;-78
2023/03/12 06:56:58;;;;;;;9.23;6.85;;;3.00;99.90;;;;;;6236805;28;20042;-78
2023/03/12 07:00:01;;;;;;;19.48;6.93;;;3.10;99.90;;;;;;6206244;28;20644;-78
2023/03/12 07:03:03;;;;;;;45.58;26.33;;;3.20;99.90;;;;;;6232929;28;20408;-78
2023/03/12 07:06:12;;;;;;;33.58;18.98;;;3.30;99.90;;;;;;6239143;28;20050;-78
2023/03/12 07:09:13;;;;;;;14.35;8.82;;;3.30;99.90;;;;;;6220788;28;20038;-78
2023/03/12 07:12:15;;;;;;;6.57;5.80;;;3.40;99.90;;;;;;6214690;28;20050;-79
2023/03/12 07:15:18;;;;;;;10.32;6.95;;;3.40;99.90;;;;;;6211797;28;20057;-79
2023/03/12 07:18:20;;;;;;;13.77;6.28;;;3.50;99.90;;;;;;6194976;28;20050;-77
2023/03/12 07:21:22;;;;;;;8.35;5.82;;;3.50;99.90;;;;;;6194591;28;20057;-79
2023/03/12 07:24:24;;;;;;;11.68;7.63;;;3.50;99.90;;;;;;6199143;28;20511;-78
2023/03/12 07:27:26;;;;;;;25.33;14.80;;;3.50;99.90;;;;;;6200385;28;20185;-78
2023/03/12 07:30:32;;;;;;;38.85;26.40;;;3.60;99.90;;;;;;6204729;28;20047;-77
2023/03/12 07:33:33;;;;;;;9.05;8.00;;;3.70;99.90;;;;;;6201501;28;20053;-78
2023/03/12 07:36:35;;;;;;;14.30;6.93;;;3.70;99.90;;;;;;6200607;28;20057;-77
2023/03/12 07:39:37;;;;;;;11.55;7.88;;;3.70;99.90;;;;;;6201918;28;20050;-78
2023/03/12 07:42:39;;;;;;;26.55;9.77;;;3.70;99.90;;;;;;6204781;28;20050;-78
2023/03/12 07:45:42;;;;;;;13.75;7.75;;;3.70;99.90;;;;;;6200812;28;20058;-78
2023/03/12 07:48:43;;;;;;;13.48;6.78;;;3.70;99.90;;;;;;6194982;28;20058;-78
2023/03/12 07:51:45;;;;;;;11.05;5.93;;;3.70;99.90;;;;;;6198786;28;20049;-78
2023/03/12 07:54:47;;;;;;;10.75;6.13;;;3.80;99.90;;;;;;6196431;28;20063;-78
2023/03/12 07:57:49;;;;;;;16.23;7.15;;;3.80;99.90;;;;;;6198793;28;20184;-78
2023/03/12 08:00:54;;;;;;;9.23;5.75;;;3.70;99.90;;;;;;6197176;28;20069;-77
2023/03/12 08:03:56;;;;;;;13.43;7.85;;;3.70;99.90;;;;;;6198153;28;20673;-76
2023/03/12 08:06:57;;;;;;;14.43;8.85;;;3.70;99.90;;;;;;6197374;28;20058;-77
2023/03/12 08:09:59;;;;;;;9.45;7.60;;;3.70;99.90;;;;;;6195809;28;20046;-77
2023/03/12 08:13:01;;;;;;;11.80;8.18;;;3.60;99.90;;;;;;6195314;28;20057;-77
2023/03/12 08:16:05;;;;;;;16.30;9.30;;;3.60;99.90;;;;;;6195511;28;20178;-76
2023/03/12 08:19:06;;;;;;;13.52;9.73;;;3.50;99.90;;;;;;6194488;28;20050;-78
2023/03/12 08:22:08;;;;;;;15.85;8.35;;;3.60;99.90;;;;;;6198095;28;20614;-78
2023/03/12 08:25:10;;;;;;;14.38;9.68;;;3.50;99.90;;;;;;6193800;28;20052;-77
2023/03/12 08:28:12;;;;;;;14.35;9.07;;;3.50;99.90;;;;;;6192976;28;20058;-77
2023/03/12 08:31:15;;;;;;;14.38;8.07;;;3.50;99.90;;;;;;6193879;28;20053;-77
2023/03/12 08:34:16;;;;;;;14.35;12.82;;;3.50;99.90;;;;;;6193948;28;20401;-77
2023/03/12 08:37:18;;;;;;;16.50;10.60;;;3.40;99.90;;;;;;6195038;28;20043;-77
2023/03/12 08:40:20;;;;;;;27.83;24.90;;;3.40;99.90;;;;;;6195002;28;20058;-77
2023/03/12 08:43:22;;;;;;;12.55;10.43;;;3.50;99.90;;;;;;6195536;28;20065;-77
2023/03/12 08:46:25;;;;;;;16.17;11.10;;;3.50;99.90;;;;;;6195474;28;20046;-77
2023/03/12 08:49:26;;;;;;;10.75;8.85;;;3.50;99.90;;;;;;6197790;28;20038;-77
2023/03/12 08:52:28;;;;;;;13.32;9.07;;;3.50;99.90;;;;;;6194342;28;20057;-77
2023/03/12 08:55:30;;;;;;;14.43;9.13;;;3.50;99.90;;;;;;6199811;28;20034;-77
2023/03/12 08:58:32;;;;;;;13.80;11.00;;;3.40;99.90;;;;;;6200437;28;20057;-77
2023/03/12 09:01:35;;;;;;;12.85;9.88;;;3.50;99.90;;;;;;6194742;28;20046;-77
2023/03/12 09:04:36;;;;;;;11.98;9.13;;;3.60;99.90;;;;;;6197982;28;20055;-76
2023/03/12 09:07:38;;;;;;;12.40;9.95;;;3.70;99.90;;;;;;6194102;28;20062;-76
2023/03/12 09:10:40;;;;;;;11.82;8.70;;;3.70;99.90;;;;;;6196161;28;20042;-78
2023/03/12 09:13:42;;;;;;;11.13;8.05;;;3.80;99.90;;;;;;6193284;28;20050;-76
2023/03/12 09:16:45;;;;;;;18.33;12.05;;;3.80;99.90;;;;;;6191496;28;20050;-77
2023/03/12 09:19:47;;;;;;;10.25;8.75;;;3.90;99.90;;;;;;6188988;28;20087;-77
2023/03/12 09:22:49;;;;;;;10.85;7.82;;;3.80;99.90;;;;;;6194904;28;20065;-77
2023/03/12 09:25:51;;;;;;;12.02;8.77;;;3.80;99.90;;;;;;6195000;28;20054;-77
2023/03/12 09:28:53;;;;;;;10.05;8.85;;;3.80;99.90;;;;;;6190045;28;20512;-77
2023/03/12 09:31:56;;;;;;;13.18;9.20;;;3.80;99.90;;;;;;6200486;28;20053;-78
2023/03/12 09:34:58;;;;;;;11.95;9.35;;;4.00;99.90;;;;;;6189269;28;20050;-77
2023/03/12 09:38:00;;;;;;;14.85;9.82;;;4.00;99.90;;;;;;6190793;28;20096;-77
2023/03/12 09:41:03;;;;;;;14.70;9.43;;;4.20;99.90;;;;;;6192717;28;20038;-77
2023/03/12 09:44:15;;;;;;;11.18;8.90;;;4.30;99.90;;;;;;6194482;28;20053;-78
2023/03/12 09:47:26;;;;;;;13.25;10.75;;;4.30;99.90;;;;;;6190825;28;20354;-77
2023/03/12 09:50:31;;;;;;;13.60;12.20;;;4.40;99.90;;;;;;6192402;28;20057;-79
2023/03/12 09:53:39;;;;;;;18.92;12.05;;;4.60;99.90;;;;;;6185816;28;20046;-79
2023/03/12 09:56:42;;;;;;;16.90;11.32;;;4.80;99.90;;;;;;6193328;28;20074;-80
2023/03/12 09:59:44;;;;;;;12.02;10.80;;;5.10;99.90;;;;;;6194109;28;20048;-79
2023/03/12 10:03:05;;;;;;;19.52;11.60;;;5.30;99.90;;;;;;6193213;28;20057;-78
2023/03/12 10:06:13;;;;;;;13.02;11.65;;;5.50;99.90;;;;;;6193853;28;20065;-78
2023/03/12 10:09:22;;;;;;;;;;;5.80;99.90;;;;;;6199714;28;20057;-78
2023/03/12 10:12:34;;;;;;;13.60;12.18;;;5.90;99.90;;;;;;6205537;28;19965;-78
2023/03/12 10:15:45;;;;;;;12.82;11.45;;;6.10;99.90;;;;;;6206614;28;20038;-78
2023/03/12 10:18:59;;;;;;;13.88;11.52;;;6.20;99.90;;;;;;6211103;28;20042;-79
2023/03/12 10:22:07;;;;;;;18.63;13.93;;;6.40;99.90;;;;;;6207049;28;20050;-78
2023/03/12 10:25:17;;;;;;;18.13;13.65;;;6.60;99.90;;;;;;6205690;28;20079;-78
2023/03/12 10:28:21;;;;;;;16.15;13.80;;;6.70;99.90;;;;;;6207228;28;20062;-79
2023/03/12 10:31:27;;;;;;;18.63;14.40;;;6.90;99.90;;;;;;6206843;28;20053;-79
2023/03/12 10:34:36;;;;;;;17.05;13.77;;;7.10;99.90;;;;;;6209343;28;20053;-79
2023/03/12 10:37:43;;;;;;;24.95;22.58;;;7.40;99.90;;;;;;6203594;28;20169;-79
2023/03/12 10:40:45;;;;;;;19.77;17.80;;;7.80;99.90;;;;;;6205675;28;20073;-79
2023/03/12 10:43:46;;;;;;;12.45;11.18;;;8.50;99.90;;;;;;6207000;28;20077;-79
2023/03/12 10:46:59;;;;;;;17.42;11.05;;;9.00;99.90;;;;;;6205749;28;20050;-79
2023/03/12 10:50:16;;;;;;;11.25;10.13;;;9.40;99.90;;;;;;6207390;28;20061;-79
2023/03/12 10:53:24;;;;;;;11.60;8.68;;;9.70;99.90;;;;;;6207422;28;20047;-79
2023/03/12 10:56:26;;;;;;;14.43;9.48;;;9.90;99.90;;;;;;6209193;28;20524;-78
2023/03/12 10:59:31;;;;;;;9.93;9.02;;;9.90;99.90;;;;;;6208487;28;20061;-79
2023/03/12 11:02:38;;;;;;;10.15;9.27;;;10.00;99.90;;;;;;6211074;28;20060;-79
2023/03/12 11:05:49;;;;;;;13.75;9.98;;;10.30;99.90;;;;;;6208652;28;20050;-79
2023/03/12 11:09:05;;;;;;;13.90;9.40;;;10.50;99.90;;;;;;6209501;28;20125;-79
2023/03/12 11:12:24;;;;;;;10.27;7.60;;;10.70;99.90;;;;;;6210123;28;20452;-80
2023/03/12 11:15:27;;;;;;;11.57;7.95;;;11.20;99.90;;;;;;6212272;28;20065;-79
2023/03/12 11:18:33;;;;;;;8.02;6.72;;;11.60;99.90;;;;;;6213612;28;20054;-79
2023/03/12 11:21:37;;;;;;;9.45;6.25;;;12.30;99.90;;;;;;6209944;28;20038;-79
2023/03/12 11:24:56;;;;;;;17.30;8.98;;;12.70;99.90;;;;;;6213210;28;20405;-79
2023/03/12 11:28:01;;;;;;;9.63;5.78;;;12.90;99.90;;;;;;6211204;28;20055;-79
2023/03/12 11:31:05;;;;;;;9.32;6.53;;;13.10;99.90;;;;;;6212191;28;20146;-79
2023/03/12 11:34:14;;;;;;;10.25;7.05;;;13.20;99.90;;;;;;6213599;28;20050;-79
2023/03/12 11:37:25;;;;;;;9.02;5.03;;;13.40;99.90;;;;;;6209398;28;20054;-80
2023/03/12 11:40:39;;;;;;;13.50;5.50;;;13.90;99.90;;;;;;6202291;28;20069;-79
2023/03/12 11:43:55;;;;;;;7.32;4.70;;;14.20;99.90;;;;;;6211309;28;20112;-79
2023/03/12 11:47:14;;;;;;;9.88;5.72;;;14.40;99.90;;;;;;6210379;28;20057;-79
2023/03/12 11:50:25;;;;;;;7.13;5.38;;;14.30;99.90;;;;;;6210340;28;20054;-79
2023/03/12 11:53:53;;;;;;;8.35;6.38;;;14.50;99.90;;;;;;6211374;28;20050;-80
2023/03/12 11:56:56;;;;;;;7.75;6.95;;;14.80;99.90;;;;;;6211751;28;21517;-79
2023/03/12 12:00:12;;;;;;;6.80;6.10;;;14.60;99.90;;;;;;6214211;28;20054;-79
2023/03/12 12:03:34;;;;;;;13.85;5.43;;;14.50;99.90;;;;;;6210568;28;20070;-79
2023/03/12 12:06:46;;;;;;;10.07;5.10;;;14.20;99.90;;;;;;6211389;28;20050;-80
2023/03/12 12:09:57;;;;;;;10.43;5.07;;;14.00;99.90;;;;;;6212214;28;20062;-79
2023/03/12 12:13:08;;;;;;;6.68;4.72;;;13.80;99.90;;;;;;6209990;28;20057;-79
2023/03/12 12:16:30;;;;;;;11.23;4.75;;;13.50;99.90;;;;;;6197851;28;20050;-79
2023/03/12 12:19:42;;;;;;;5.68;3.58;;;13.40;99.90;;;;;;6199437;28;20050;-80
2023/03/12 12:23:01;;;;;;;16.25;6.32;;;13.60;99.90;;;;;;6193792;28;20556;-79
2023/03/12 12:26:09;;;;;;;7.85;3.80;;;13.70;99.90;;;;;;6194154;28;20050;-78
2023/03/12 12:29:32;;;;;;;6.65;3.92;;;13.80;99.90;;;;;;6195426;28;20043;-79
2023/03/12 12:32:48;;;;;;;4.57;3.25;;;13.70;99.90;;;;;;6196271;28;20072;-79
2023/03/12 12:35:50;;;;;;;11.20;4.97;;;13.70;99.90;;;;;;6197058;28;20065;-79
2023/03/12 12:38:55;;;;;;;84.70;45.67;;;13.60;99.90;;;;;;6206650;28;20065;-79
2023/03/12 12:42:03;;;;;;;36.88;18.38;;;13.50;99.90;;;;;;6208009;28;20057;-81
2023/03/12 12:45:06;;;;;;;28.15;14.00;;;13.60;99.90;;;;;;6207936;28;20038;-79
2023/03/12 12:48:16;;;;;;;68.55;34.55;;;13.90;99.90;;;;;;6209060;28;20101;-79
2023/03/12 12:51:21;;;;;;;17.13;10.43;;;14.20;99.90;;;;;;6211463;28;20041;-80
2023/03/12 12:54:30;;;;;;;21.98;14.35;;;14.30;99.90;;;;;;6214155;28;20140;-80
2023/03/12 12:57:39;;;;;;;20.77;12.45;;;14.40;99.90;;;;;;6211182;28;20121;-80
2023/03/12 13:00:46;;;;;;;12.00;9.13;;;14.20;99.90;;;;;;6214702;28;20063;-80
2023/03/12 13:03:49;;;;;;;14.38;7.85;;;14.10;99.90;;;;;;6218708;28;20129;-83
2023/03/12 13:06:59;;;;;;;9.32;4.75;;;13.80;99.90;;;;;;6225417;28;23071;-82
2023/03/12 13:10:06;;;;;;;11.32;4.15;;;13.60;99.90;;;;;;6226033;28;20042;-80
2023/03/12 13:13:13;;;;;;;8.10;3.13;;;13.40;99.90;;;;;;6223867;28;20047;-82
2023/03/12 13:16:33;;;;;;;7.85;3.45;;;13.30;99.90;;;;;;6224344;28;20050;-82
2023/03/12 13:19:40;;;;;;;11.57;4.32;;;13.30;99.90;;;;;;6223041;28;20054;-81
2023/03/12 13:23:09;;;;;;;10.93;4.85;;;13.40;99.90;;;;;;6223626;28;20061;-83
2023/03/12 13:26:21;;;;;;;11.15;4.55;;;13.70;99.90;;;;;;6221731;28;20054;-82
2023/03/12 13:29:38;;;;;;;13.07;4.45;;;14.00;99.90;;;;;;6210878;28;20076;-81
2023/03/12 13:33:11;;;;;;;7.07;3.42;;;14.30;99.90;;;;;;6215332;28;20046;-79
2023/03/12 13:36:27;;;;;;;12.20;3.67;;;14.30;99.90;;;;;;6183661;28;20042;-79
2023/03/12 13:39:30;;;;;;;18.52;4.53;;;14.30;99.90;;;;;;6197417;28;20054;-79
2023/03/12 13:42:38;;;;;;;13.40;4.60;;;14.30;99.90;;;;;;6208387;28;20049;-79
2023/03/12 13:45:58;;;;;;;12.48;4.07;;;14.60;99.90;;;;;;6207395;28;20058;-80
2023/03/12 13:49:04;;;;;;;8.50;2.30;;;15.20;99.90;;;;;;6206197;28;20061;-79
2023/03/12 13:52:18;;;;;;;10.23;3.08;;;15.90;99.90;;;;;;6205943;28;20050;-80
2023/03/12 13:55:24;;;;;;;16.58;3.45;;;16.60;99.90;;;;;;6204899;28;20057;-80
2023/03/12 13:58:48;;;;;;;12.40;3.10;;;16.90;99.90;;;;;;6203369;28;20042;-81
2023/03/12 14:01:57;;;;;;;7.45;3.22;;;16.70;99.90;;;;;;6211965;28;20050;-80
2023/03/12 14:05:04;;;;;;;12.30;3.00;;;16.40;99.90;;;;;;6203374;28;20048;-79
2023/03/12 14:08:35;;;;;;;8.15;4.63;;;16.40;99.90;;;;;;6208855;28;20403;-80
2023/03/12 14:11:51;;;;;;;11.02;3.47;;;16.50;99.90;;;;;;6202874;28;20050;-79
2023/03/12 14:15:07;;;;;;;10.88;3.17;;;16.60;99.90;;;;;;6204432;28;20053;-79
2023/03/12 14:18:17;;;;;;;11.93;2.97;;;16.90;99.90;;;;;;6204304;28;20054;-79
2023/03/12 14:21:21;;;;;;;16.45;3.78;;;17.10;99.90;;;;;;6199198;28;20042;-79
2023/03/12 14:24:27;;;;;;;8.20;3.22;;;16.90;99.30;;;;;;6194656;28;20046;-79
2023/03/12 14:27:31;;;;;;;10.32;3.20;;;16.50;99.20;;;;;;6193227;28;20042;-79
2023/03/12 14:30:42;;;;;;;16.50;4.60;;;16.10;99.10;;;;;;6194668;28;20050;-80
2023/03/12 14:33:53;;;;;;;17.02;3.83;;;15.90;99.40;;;;;;6193537;28;20529;-79
2023/03/12 14:37:00;;;;;;;11.95;3.50;;;15.60;99.70;;;;;;6193784;28;20054;-79
2023/03/12 14:40:06;;;;;;;6.17;2.97;;;15.50;99.90;;;;;;6194971;28;20062;-79
2023/03/12 14:43:22;;;;;;;8.90;2.70;;;15.40;99.90;;;;;;6193603;28;20054;-79
2023/03/12 14:46:24;;;;;;;12.95;3.22;;;15.20;99.70;;;;;;6193313;28;20043;-79
2023/03/12 14:49:28;;;;;;;10.65;2.70;;;14.90;99.70;;;;;;6193187;28;20046;-79
2023/03/12 14:52:30;;;;;;;8.73;3.10;;;14.70;99.90;;;;;;6200542;28;20049;-79
2023/03/12 14:55:31;;;;;;;14.68;3.47;;;14.70;99.90;;;;;;6202379;28;20070;-79
2023/03/12 14:58:35;;;;;;;11.38;2.75;;;14.80;99.90;;;;;;6211204;28;20049;-80
2023/03/12 15:01:39;;;;;;;6.50;2.58;;;14.90;99.90;;;;;;6209403;28;20147;-80
2023/03/12 15:04:42;;;;;;;12.27;2.70;;;14.80;99.90;;;;;;6212249;28;20500;-79
2023/03/12 15:07:46;;;;;;;10.32;3.55;;;14.80;99.90;;;;;;6207210;28;20058;-79
2023/03/12 15:10:49;;;;;;;9.48;1.95;;;14.70;99.90;;;;;;6213990;28;20042;-79
2023/03/12 15:13:53;;;;;;;15.38;3.10;;;14.70;99.90;;;;;;6211386;28;20077;-79
2023/03/12 15:16:56;;;;;;;17.85;3.75;;;14.70;99.90;;;;;;6212316;28;20053;-80
2023/03/12 15:20:01;;;;;;;9.70;2.63;;;14.70;99.90;;;;;;6206752;28;20334;-80
2023/03/12 15:23:03;;;;;;;17.30;2.83;;;14.70;99.90;;;;;;6208073;28;20057;-80
2023/03/12 15:26:10;;;;;;;11.20;3.72;;;14.80;99.40;;;;;;6209514;28;20050;-79
2023/03/12 15:29:26;;;;;;;12.80;3.45;;;14.70;99.50;;;;;;6208988;28;20059;-78
2023/03/12 15:32:30;;;;;;;14.80;3.72;;;14.70;99.60;;;;;;6207710;28;20049;-80
2023/03/12 15:35:33;;;;;;;12.18;3.67;;;14.60;99.80;;;;;;6209092;28;20408;-80
2023/03/12 15:38:37;;;;;;;12.15;3.25;;;14.50;99.70;;;;;;6208138;28;20043;-79
2023/03/12 15:41:44;;;;;;;12.50;3.22;;;14.50;99.80;;;;;;6209773;28;20065;-80
2023/03/12 15:44:48;;;;;;;13.13;2.88;;;14.40;99.90;;;;;;6207544;28;20053;-80
2023/03/12 15:47:51;;;;;;;9.02;2.78;;;14.40;99.90;;;;;;6204967;28;20054;-80
2023/03/12 15:50:54;;;;;;;10.77;2.63;;;14.30;99.90;;;;;;6209940;28;20056;-80
2023/03/12 15:54:01;;;;;;;15.77;3.10;;;14.20;99.80;;;;;;6210394;28;20531;-80
2023/03/12 15:57:20;;;;;;;14.13;3.80;;;14.10;99.90;;;;;;6206388;28;20057;-80
2023/03/12 16:00:25;;;;;;;9.93;3.90;;;14.10;99.90;;;;;;6209525;28;20069;-80
2023/03/12 16:03:27;;;;;;;8.50;2.95;;;14.00;99.90;;;;;;6209804;28;20038;-79